createdAt,value
2022-09-18T00:01:33.963Z,5.93
2022-09-18T00:04:07.228Z,6.32
2022-09-18T00:06:38.556Z,4.05
2022-09-18T00:09:09.930Z,5.13
2022-09-18T00:11:40.689Z,4.78
2022-09-18T00:14:10.617Z,5.50
2022-09-18T00:16:39.117Z,3.60
2022-09-18T00:19:07.407Z,4.18
2022-09-18T00:21:37.597Z,3.30
2022-09-18T00:24:06.980Z,3.42
2022-09-18T00:26:35.879Z,3.90
2022-09-18T00:29:04.423Z,4.00
2022-09-18T00:31:35.190Z,3.53
2022-09-18T00:34:11.450Z,3.67
2022-09-18T00:36:39.734Z,4.85
2022-09-18T00:39:08.253Z,3.65
2022-09-18T00:41:39.788Z,4.07
2022-09-18T00:44:46.068Z,4.60
2022-09-18T00:47:29.885Z,3.53
2022-09-18T00:49:57.274Z,3.83
2022-09-18T00:52:29.779Z,4.50
2022-09-18T00:55:02.877Z,3.38
2022-09-18T00:57:34.053Z,3.15
2022-09-18T01:00:04.515Z,3.08
2022-09-18T01:02:32.270Z,3.40
2022-09-18T01:04:59.766Z,4.75
2022-09-18T01:07:54.613Z,2.38
2022-09-18T01:10:40.588Z,4.25
2022-09-18T01:13:34.941Z,3.33
2022-09-18T01:16:22.838Z,4.85
2022-09-18T01:19:24.477Z,2.90
2022-09-18T01:22:22.766Z,4.47
2022-09-18T01:25:08.361Z,4.20
2022-09-18T01:27:40.135Z,4.93
2022-09-18T01:30:11.464Z,3.72
2022-09-18T01:32:59.590Z,4.03
2022-09-18T01:35:42.200Z,3.38
2022-09-18T01:38:32.132Z,3.75
2022-09-18T01:41:12.009Z,3.60
2022-09-18T01:43:41.597Z,2.40
2022-09-18T01:46:15.818Z,4.25
2022-09-18T01:48:57.482Z,5.38
2022-09-18T01:51:40.250Z,4.32
2022-09-18T01:54:17.330Z,3.20
2022-09-18T01:56:51.888Z,4.18
2022-09-18T01:59:25.142Z,5.85
2022-09-18T02:02:03.834Z,6.18
2022-09-18T02:04:36.314Z,4.10
2022-09-18T02:07:28.928Z,4.43
2022-09-18T02:09:58.625Z,4.10
2022-09-18T02:12:29.357Z,4.30
2022-09-18T02:15:06.302Z,3.60
2022-09-18T02:20:38.768Z,3.83
2022-09-18T02:23:08.315Z,6.00
2022-09-18T02:25:46.191Z,5.80
2022-09-18T02:28:17.218Z,3.97
2022-09-18T02:30:45.763Z,5.00
2022-09-18T02:33:30.927Z,4.38
2022-09-18T02:36:07.671Z,4.10
2022-09-18T02:39:09.050Z,4.57
2022-09-18T02:41:58.156Z,3.53
2022-09-18T02:44:43.081Z,5.90
2022-09-18T02:47:31.271Z,6.05
2022-09-18T02:50:13.431Z,6.35
2022-09-18T02:52:41.398Z,6.22
2022-09-18T02:55:32.247Z,5.72
2022-09-18T02:58:05.975Z,4.50
2022-09-18T03:00:36.322Z,4.50
2022-09-18T03:03:15.797Z,3.55
2022-09-18T03:05:51.110Z,3.55
2022-09-18T03:08:19.630Z,5.15
2022-09-18T03:10:47.189Z,4.35
2022-09-18T03:13:15.821Z,4.20
2022-09-18T03:15:43.724Z,4.82
2022-09-18T03:18:11.808Z,6.32
2022-09-18T03:20:42.476Z,5.03
2022-09-18T03:23:11.237Z,5.93
2022-09-18T03:25:39.551Z,5.47
2022-09-18T03:28:09.114Z,6.10
2022-09-18T03:30:40.550Z,6.18
2022-09-18T03:33:08.756Z,5.05
2022-09-18T03:35:36.357Z,4.70
2022-09-18T03:38:03.889Z,5.15
2022-09-18T03:40:32.045Z,5.50
2022-09-18T03:43:04.314Z,4.97
2022-09-18T03:45:32.132Z,4.60
2022-09-18T03:48:00.690Z,5.10
2022-09-18T03:50:29.580Z,7.22
2022-09-18T03:52:57.491Z,4.53
2022-09-18T03:55:39.321Z,4.45
2022-09-18T03:58:22.009Z,4.88
2022-09-18T04:01:08.439Z,6.22
2022-09-18T04:03:56.068Z,4.03
2022-09-18T04:06:49.612Z,5.25
2022-09-18T04:09:37.039Z,5.18
2022-09-18T04:12:04.693Z,3.70
2022-09-18T04:14:32.954Z,6.03
2022-09-18T04:17:00.774Z,5.40
2022-09-18T04:19:30.323Z,5.97
2022-09-18T04:21:58.684Z,4.18
2022-09-18T04:24:26.562Z,4.18
2022-09-18T04:26:54.105Z,4.72
2022-09-18T04:29:24.355Z,5.53
2022-09-18T04:31:52.278Z,5.50
2022-09-18T04:34:22.130Z,5.40
2022-09-18T04:36:49.750Z,6.03
2022-09-18T04:39:17.664Z,5.82
2022-09-18T04:41:48.016Z,5.55
2022-09-18T04:44:15.851Z,6.63
2022-09-18T04:46:44.088Z,4.22
2022-09-18T04:49:11.768Z,4.07
2022-09-18T04:51:39.249Z,5.93
2022-09-18T04:54:06.786Z,8.13
2022-09-18T04:56:38.252Z,5.65
2022-09-18T04:59:05.709Z,4.38
2022-09-18T05:01:38.389Z,5.50
2022-09-18T05:04:11.584Z,4.80
2022-09-18T05:06:48.447Z,6.13
2022-09-18T05:09:17.828Z,5.45
2022-09-18T05:11:45.366Z,7.47
2022-09-18T05:14:13.140Z,7.32
2022-09-18T05:16:44.471Z,5.78
2022-09-18T05:19:37.474Z,5.90
2022-09-18T05:22:10.563Z,9.82
2022-09-18T05:24:42.283Z,4.47
2022-09-18T05:27:09.759Z,4.40
2022-09-18T05:29:37.964Z,4.57
2022-09-18T05:32:18.559Z,5.70
2022-09-18T05:34:50.411Z,13.80
2022-09-18T05:37:18.902Z,8.82
2022-09-18T05:39:50.678Z,7.25
2022-09-18T05:42:18.154Z,4.93
2022-09-18T05:44:45.567Z,4.13
2022-09-18T05:47:18.287Z,5.30
2022-09-18T05:49:45.800Z,3.97
2022-09-18T05:52:13.654Z,6.28
2022-09-18T05:54:41.768Z,4.57
2022-09-18T05:57:10.265Z,4.70
2022-09-18T05:59:37.852Z,5.63
2022-09-18T06:02:06.296Z,4.55
2022-09-18T06:04:53.895Z,8.77
2022-09-18T06:07:21.277Z,9.30
2022-09-18T06:09:50.025Z,30.63
2022-09-18T06:12:17.516Z,19.42
2022-09-18T06:14:44.969Z,11.18
2022-09-18T06:17:12.301Z,26.55
2022-09-18T06:19:39.835Z,17.88
2022-09-18T06:22:08.427Z,24.95
2022-09-18T06:24:37.125Z,16.45
2022-09-18T06:27:10.150Z,15.07
2022-09-18T06:29:39.087Z,14.13
2022-09-18T06:32:11.735Z,29.55
2022-09-18T06:34:40.798Z,16.35
2022-09-18T06:37:12.192Z,13.13
2022-09-18T06:39:42.875Z,10.38
2022-09-18T06:42:17.173Z,6.85
2022-09-18T06:45:16.731Z,11.23
2022-09-18T06:47:47.623Z,7.82
2022-09-18T06:50:15.051Z,11.20
2022-09-18T06:52:45.311Z,8.65
2022-09-18T06:55:13.072Z,5.85
2022-09-18T06:57:40.723Z,4.80
2022-09-18T07:00:11.799Z,4.90
2022-09-18T07:02:40.434Z,8.18
2022-09-18T07:05:32.952Z,4.72
2022-09-18T07:08:00.781Z,4.07
2022-09-18T07:10:30.991Z,4.63
2022-09-18T07:13:00.870Z,6.68
2022-09-18T07:15:29.942Z,6.90
2022-09-18T07:18:03.067Z,5.20
2022-09-18T07:20:30.982Z,4.88
2022-09-18T07:23:01.289Z,5.57
2022-09-18T07:25:41.397Z,4.00
2022-09-18T07:28:11.490Z,3.30
2022-09-18T07:30:46.752Z,3.50
2022-09-18T07:33:15.650Z,2.80
2022-09-18T07:35:48.097Z,5.00
2022-09-18T07:38:17.852Z,2.75
2022-09-18T07:40:53.059Z,2.90
2022-09-18T07:43:28.999Z,2.35
2022-09-18T07:45:56.590Z,4.03
2022-09-18T07:48:24.635Z,2.08
2022-09-18T07:50:58.623Z,2.10
2022-09-18T07:53:26.716Z,2.65
2022-09-18T07:55:57.922Z,3.08
2022-09-18T07:58:27.268Z,2.20
2022-09-18T08:01:02.827Z,2.65
2022-09-18T08:03:32.615Z,3.75
2022-09-18T08:06:20.768Z,2.63
2022-09-18T08:09:08.433Z,1.85
2022-09-18T08:11:54.428Z,2.38
2022-09-18T08:14:30.405Z,3.13
2022-09-18T08:17:20.798Z,2.65
2022-09-18T08:20:14.651Z,3.92
2022-09-18T08:22:48.972Z,5.45
2022-09-18T08:25:18.119Z,6.72
2022-09-18T08:27:48.621Z,4.72
2022-09-18T08:30:22.704Z,6.00
2022-09-18T08:33:08.019Z,4.90
2022-09-18T08:35:35.844Z,4.25
2022-09-18T08:38:17.062Z,6.55
2022-09-18T08:41:50.308Z,5.25
2022-09-18T08:47:01.006Z,4.50
2022-09-18T08:49:32.535Z,5.20
2022-09-18T08:52:23.566Z,5.07
2022-09-18T08:55:33.651Z,3.92
2022-09-18T08:58:16.699Z,10.75
2022-09-18T09:01:16.159Z,6.47
2022-09-18T09:04:13.116Z,6.78
2022-09-18T09:06:55.771Z,7.20
2022-09-18T09:09:40.455Z,7.22
2022-09-18T09:12:24.071Z,5.60
2022-09-18T09:15:20.818Z,4.55
2022-09-18T09:18:23.293Z,3.72
2022-09-18T09:20:55.260Z,5.90
2022-09-18T09:23:46.455Z,5.57
2022-09-18T09:26:28.509Z,6.47
2022-09-18T09:29:24.033Z,5.22
2022-09-18T09:32:28.822Z,4.28
2022-09-18T09:35:17.066Z,3.87
2022-09-18T09:38:13.351Z,4.00
2022-09-18T09:40:50.237Z,6.20
2022-09-18T09:43:24.851Z,7.55
2022-09-18T09:45:59.569Z,6.28
2022-09-18T09:48:36.819Z,5.47
2022-09-18T09:51:49.999Z,4.57
2022-09-18T09:54:17.782Z,5.43
2022-09-18T09:56:57.300Z,4.78
2022-09-18T09:59:40.716Z,5.95
2022-09-18T10:02:56.593Z,5.78
2022-09-18T10:05:45.004Z,5.95
2022-09-18T10:08:29.511Z,4.57
2022-09-18T10:11:11.544Z,6.88
2022-09-18T10:13:44.143Z,6.47
2022-09-18T10:16:24.909Z,5.38
2022-09-18T10:18:53.961Z,6.18
2022-09-18T10:21:27.428Z,5.40
2022-09-18T10:24:01.485Z,5.55
2022-09-18T10:26:38.423Z,10.25
2022-09-18T10:29:06.370Z,7.05
2022-09-18T10:31:48.719Z,6.00
2022-09-18T10:34:41.517Z,6.13
2022-09-18T10:37:46.416Z,7.53
2022-09-18T10:40:32.062Z,9.57
2022-09-18T10:43:01.356Z,12.25
2022-09-18T10:45:40.474Z,8.57
2022-09-18T10:48:27.882Z,8.27
2022-09-18T10:51:04.940Z,16.45
2022-09-18T10:53:42.787Z,21.67
2022-09-18T10:56:26.283Z,12.25
2022-09-18T10:58:57.616Z,9.93
2022-09-18T11:01:26.506Z,5.93
2022-09-18T11:04:06.985Z,6.65
2022-09-18T11:06:38.072Z,8.90
2022-09-18T11:09:33.744Z,6.00
2022-09-18T11:12:02.687Z,5.15
2022-09-18T11:14:41.990Z,5.50
2022-09-18T11:17:24.035Z,6.03
2022-09-18T11:19:55.145Z,6.97
2022-09-18T11:22:46.018Z,4.38
2022-09-18T11:25:28.954Z,3.97
2022-09-18T11:28:24.126Z,4.85
2022-09-18T11:30:59.278Z,4.95
2022-09-18T11:33:31.560Z,4.85
2022-09-18T11:36:05.949Z,4.97
2022-09-18T11:38:46.213Z,4.37
2022-09-18T11:41:23.467Z,6.18
2022-09-18T11:44:04.891Z,4.93
2022-09-18T11:46:52.096Z,7.13
2022-09-18T11:49:22.283Z,6.30
2022-09-18T11:52:04.286Z,8.40
2022-09-18T11:54:47.142Z,9.25
2022-09-18T11:57:21.790Z,14.13
2022-09-18T12:00:05.049Z,8.73
2022-09-18T12:02:53.171Z,11.05
2022-09-18T12:05:41.253Z,13.93
2022-09-18T12:08:21.494Z,9.93
2022-09-18T12:11:24.237Z,6.72
2022-09-18T12:14:13.731Z,11.25
2022-09-18T12:17:28.221Z,15.65
2022-09-18T12:20:02.636Z,14.40
2022-09-18T12:22:45.164Z,6.63
2022-09-18T12:25:17.162Z,6.68
2022-09-18T12:28:15.031Z,4.65
2022-09-18T12:30:54.874Z,4.95
2022-09-18T12:33:48.590Z,4.70
2022-09-18T12:36:37.702Z,6.65
2022-09-18T12:39:24.269Z,4.97
2022-09-18T12:42:19.001Z,5.43
2022-09-18T12:45:05.047Z,8.45
2022-09-18T12:47:57.340Z,18.83
2022-09-18T12:50:59.280Z,16.80
2022-09-18T12:53:45.377Z,15.23
2022-09-18T12:56:27.307Z,8.25
2022-09-18T12:59:01.447Z,7.70
2022-09-18T13:02:00.471Z,6.85
2022-09-18T13:04:41.010Z,6.10
2022-09-18T13:07:17.385Z,6.68
2022-09-18T13:10:07.277Z,6.47
2022-09-18T13:12:41.773Z,4.32
2022-09-18T13:15:33.941Z,6.45
2022-09-18T13:18:19.172Z,6.45
2022-09-18T13:20:47.284Z,6.38
2022-09-18T13:23:39.521Z,5.00
2022-09-18T13:26:13.361Z,5.55
2022-09-18T13:28:42.641Z,4.60
2022-09-18T13:31:32.683Z,5.05
2022-09-18T13:34:01.524Z,6.88
2022-09-18T13:36:38.464Z,5.93
2022-09-18T13:39:16.175Z,5.32
2022-09-18T13:41:50.677Z,4.75
2022-09-18T13:44:21.634Z,4.38
2022-09-18T13:46:51.871Z,4.28
2022-09-18T13:49:29.164Z,5.45
2022-09-18T13:51:57.218Z,5.65
2022-09-18T13:54:28.530Z,3.72
2022-09-18T13:57:11.183Z,4.43
2022-09-18T13:59:48.622Z,5.65
2022-09-18T14:02:31.501Z,7.78
2022-09-18T14:05:18.895Z,7.90
2022-09-18T14:07:54.163Z,10.50
2022-09-18T14:10:26.712Z,7.15
2022-09-18T14:13:24.341Z,9.10
2022-09-18T14:15:59.211Z,14.57
2022-09-18T14:18:45.091Z,7.47
2022-09-18T14:21:18.976Z,8.00
2022-09-18T14:23:46.733Z,6.75
2022-09-18T14:26:37.501Z,7.68
2022-09-18T14:29:11.040Z,7.03
2022-09-18T14:34:22.247Z,9.68
2022-09-18T14:36:55.417Z,11.45
2022-09-18T14:39:28.709Z,8.88
2022-09-18T14:42:00.313Z,7.53
2022-09-18T14:44:30.036Z,7.95
2022-09-18T14:46:59.986Z,9.70
2022-09-18T14:49:31.628Z,6.70
2022-09-18T14:52:04.956Z,7.15
2022-09-18T14:57:15.407Z,8.50
2022-09-18T14:59:43.063Z,9.00
2022-09-18T15:02:32.223Z,8.25
2022-09-18T15:05:02.267Z,7.40
2022-09-18T15:07:31.055Z,6.95
2022-09-18T15:10:02.922Z,6.47
2022-09-18T15:12:33.010Z,7.72
2022-09-18T15:15:00.516Z,7.50
2022-09-18T15:17:31.109Z,6.47
2022-09-18T15:20:02.851Z,7.80
2022-09-18T15:22:31.270Z,6.77
2022-09-18T15:25:02.089Z,6.30
2022-09-18T15:27:31.936Z,9.30
2022-09-18T15:30:01.675Z,7.80
2022-09-18T15:32:38.415Z,10.55
2022-09-18T15:35:13.032Z,6.05
2022-09-18T15:37:50.594Z,5.25
2022-09-18T15:40:25.028Z,5.60
2022-09-18T15:42:59.463Z,11.80
2022-09-18T15:45:30.118Z,7.22
2022-09-18T15:48:00.828Z,7.88
2022-09-18T15:50:34.070Z,8.27
2022-09-18T15:53:14.090Z,5.75
2022-09-18T15:56:02.833Z,7.05
2022-09-18T15:58:35.675Z,7.40
2022-09-18T16:01:06.978Z,7.60
2022-09-18T16:03:41.803Z,6.40
2022-09-18T16:06:21.766Z,7.60
2022-09-18T16:08:53.238Z,10.13
2022-09-18T16:11:46.686Z,9.88
2022-09-18T16:14:43.867Z,10.60
2022-09-18T16:17:31.216Z,14.57
2022-09-18T16:20:20.352Z,9.25
2022-09-18T16:22:49.474Z,9.80
2022-09-18T16:25:24.665Z,8.55
2022-09-18T16:27:56.646Z,11.55
2022-09-18T16:30:25.575Z,10.40
2022-09-18T16:33:00.198Z,10.18
2022-09-18T16:35:27.930Z,12.65
2022-09-18T16:37:56.022Z,12.13
2022-09-18T16:40:27.616Z,12.18
2022-09-18T16:42:58.659Z,18.75
2022-09-18T16:45:29.190Z,17.15
2022-09-18T16:48:00.498Z,14.82
2022-09-18T16:50:28.410Z,12.52
2022-09-18T16:53:00.718Z,9.52
2022-09-18T16:55:30.990Z,10.48
2022-09-18T16:57:58.899Z,14.40
2022-09-18T17:00:28.073Z,14.05
2022-09-18T17:02:57.275Z,10.88
2022-09-18T17:05:26.340Z,11.48
2022-09-18T17:07:54.061Z,8.50
2022-09-18T17:10:21.900Z,9.80
2022-09-18T17:12:49.562Z,8.80
2022-09-18T17:15:17.466Z,9.63
2022-09-18T17:17:45.867Z,6.18
2022-09-18T17:20:17.991Z,7.85
2022-09-18T17:22:47.264Z,9.55
2022-09-18T17:25:16.075Z,7.82
2022-09-18T17:27:44.104Z,5.15
2022-09-18T17:30:12.938Z,6.97
2022-09-18T17:32:40.513Z,7.28
2022-09-18T17:35:08.361Z,6.93
2022-09-18T17:37:36.171Z,6.25
2022-09-18T17:40:03.815Z,7.00
2022-09-18T17:42:31.516Z,6.88
2022-09-18T17:44:59.333Z,6.00
2022-09-18T17:47:26.838Z,7.63
2022-09-18T17:49:54.330Z,8.13
2022-09-18T17:52:21.846Z,8.30
2022-09-18T17:54:49.800Z,10.50
2022-09-18T17:57:17.750Z,10.85
2022-09-18T17:59:45.330Z,12.02
2022-09-18T18:02:14.017Z,16.95
2022-09-18T18:04:41.718Z,16.05
2022-09-18T18:07:09.400Z,20.27
2022-09-18T18:09:37.815Z,16.90
2022-09-18T18:12:06.235Z,22.42
2022-09-18T18:14:34.922Z,21.77
2022-09-18T18:17:04.360Z,17.73
2022-09-18T18:19:31.753Z,22.13
2022-09-18T18:21:59.235Z,31.25
2022-09-18T18:24:27.250Z,33.50
2022-09-18T18:26:56.045Z,36.75
2022-09-18T18:29:24.099Z,31.45
2022-09-18T18:31:52.021Z,30.23
2022-09-18T18:34:25.449Z,23.90
2022-09-18T18:39:20.966Z,17.42
2022-09-18T18:41:48.896Z,16.25
2022-09-18T18:44:16.610Z,15.82
2022-09-18T18:46:44.611Z,16.20
2022-09-18T18:49:16.863Z,12.00
2022-09-18T18:51:48.056Z,12.43
2022-09-18T18:54:17.897Z,10.57
2022-09-18T18:56:47.302Z,13.38
2022-09-18T18:59:17.188Z,10.75
2022-09-18T19:01:44.915Z,11.25
2022-09-18T19:04:15.411Z,10.25
2022-09-18T19:06:44.371Z,12.75
2022-09-18T19:09:20.487Z,11.35
2022-09-18T19:11:50.327Z,11.82
2022-09-18T19:14:23.705Z,9.32
2022-09-18T19:16:52.206Z,8.98
2022-09-18T19:19:23.736Z,12.82
2022-09-18T19:21:53.061Z,10.90
2022-09-18T19:24:21.656Z,8.68
2022-09-18T19:26:49.380Z,9.90
2022-09-18T19:29:19.015Z,8.23
2022-09-18T19:31:47.433Z,8.82
2022-09-18T19:34:18.975Z,9.07
2022-09-18T19:36:50.481Z,10.63
2022-09-18T19:39:24.121Z,10.35
2022-09-18T19:42:08.278Z,10.15
2022-09-18T19:44:48.596Z,10.00
2022-09-18T19:47:28.060Z,13.98
2022-09-18T19:50:02.059Z,9.60
2022-09-18T19:52:30.957Z,11.73
2022-09-18T19:54:59.346Z,13.93
2022-09-18T19:57:28.727Z,12.43
2022-09-18T19:59:57.479Z,13.02
2022-09-18T20:02:25.738Z,16.20
2022-09-18T20:04:53.442Z,13.93
2022-09-18T20:07:20.922Z,17.25
2022-09-18T20:09:48.623Z,19.20
2022-09-18T20:12:16.269Z,18.42
2022-09-18T20:14:43.856Z,19.73
2022-09-18T20:17:11.534Z,23.33
2022-09-18T20:19:39.101Z,17.00
2022-09-18T20:22:06.592Z,14.60
2022-09-18T20:24:34.531Z,14.20
2022-09-18T20:27:02.064Z,14.60
2022-09-18T20:29:30.734Z,13.02
2022-09-18T20:31:58.395Z,14.10
2022-09-18T20:34:26.274Z,15.55
2022-09-18T20:36:55.152Z,16.77
2022-09-18T20:39:22.773Z,20.33
2022-09-18T20:41:51.398Z,18.08
2022-09-18T20:44:22.257Z,19.55
2022-09-18T20:46:50.777Z,18.15
2022-09-18T20:49:18.299Z,20.77
2022-09-18T20:51:46.286Z,20.75
2022-09-18T20:54:14.929Z,23.20
2022-09-18T20:56:44.800Z,23.50
2022-09-18T20:59:16.187Z,21.00
2022-09-18T21:01:45.159Z,22.35
2022-09-18T21:04:17.645Z,20.60
2022-09-18T21:06:57.591Z,21.13
2022-09-18T21:09:27.060Z,27.27
2022-09-18T21:11:56.977Z,22.65
2022-09-18T21:14:27.646Z,24.35
2022-09-18T21:16:56.109Z,23.45
2022-09-18T21:19:26.353Z,16.92
2022-09-18T21:21:54.070Z,17.38
2022-09-18T21:24:22.622Z,15.48
2022-09-18T21:26:50.602Z,14.15
2022-09-18T21:29:21.178Z,12.68
2022-09-18T21:31:51.605Z,13.27
2022-09-18T21:34:30.371Z,12.15
2022-09-18T21:37:00.078Z,12.10
2022-09-18T21:39:28.618Z,14.65
2022-09-18T21:41:58.387Z,14.65
2022-09-18T21:44:28.374Z,14.48
2022-09-18T21:47:02.262Z,16.55
2022-09-18T21:49:30.778Z,16.42
2022-09-18T21:52:06.966Z,10.52
2022-09-18T21:54:34.621Z,10.93
2022-09-18T21:57:02.724Z,11.68
2022-09-18T21:59:32.108Z,9.57
2022-09-18T22:02:00.879Z,8.85
2022-09-18T22:04:30.893Z,9.32
2022-09-18T22:07:00.619Z,9.23
2022-09-18T22:09:30.798Z,7.78
2022-09-18T22:11:58.656Z,9.90
2022-09-18T22:14:32.477Z,9.90
2022-09-18T22:17:01.900Z,9.43
2022-09-18T22:19:29.625Z,7.47
2022-09-18T22:21:57.243Z,8.70
2022-09-18T22:24:26.159Z,11.23
2022-09-18T22:27:08.672Z,9.18
2022-09-18T22:29:37.895Z,8.07
2022-09-18T22:32:06.198Z,9.52
2022-09-18T22:34:37.276Z,10.27
2022-09-18T22:37:05.561Z,11.35
2022-09-18T22:39:33.133Z,9.63
2022-09-18T22:42:01.133Z,13.57
2022-09-18T22:44:28.507Z,9.52
2022-09-18T22:46:56.100Z,10.43
2022-09-18T22:49:24.383Z,12.77
2022-09-18T22:51:52.562Z,11.38
2022-09-18T22:54:25.147Z,13.45
2022-09-18T22:56:53.594Z,11.27
2022-09-18T22:59:23.219Z,13.18
2022-09-18T23:02:00.916Z,16.55
2022-09-18T23:04:30.248Z,9.05
2022-09-18T23:06:59.535Z,12.60
2022-09-18T23:09:27.778Z,11.70
2022-09-18T23:11:55.902Z,9.98
2022-09-18T23:14:26.503Z,7.07
2022-09-18T23:16:55.004Z,10.10
2022-09-18T23:19:27.124Z,8.98
2022-09-18T23:21:55.867Z,8.45
2022-09-18T23:24:24.057Z,9.55
2022-09-18T23:26:53.025Z,8.40
2022-09-18T23:29:22.979Z,10.32
2022-09-18T23:31:58.013Z,9.52
2022-09-18T23:34:29.469Z,9.45
2022-09-18T23:36:58.733Z,8.85
2022-09-18T23:39:28.879Z,8.98
2022-09-18T23:41:59.000Z,9.90
2022-09-18T23:44:28.913Z,7.50
2022-09-18T23:46:56.498Z,9.30
2022-09-18T23:49:24.106Z,9.15
2022-09-18T23:51:54.190Z,7.43
2022-09-18T23:54:24.380Z,7.88
2022-09-18T23:56:52.886Z,8.13
2022-09-18T23:59:23.039Z,7.90
